createdAt,value
2019-05-02T00:00:10.313Z,100481.80
2019-05-02T00:02:39.104Z,100480.77
2019-05-02T00:05:07.315Z,100478.88
2019-05-02T00:07:33.726Z,100472.98
2019-05-02T00:09:59.920Z,100474.02
2019-05-02T00:12:27.962Z,100479.66
2019-05-02T00:14:56.455Z,100461.52
2019-05-02T00:17:25.551Z,100473.18
2019-05-02T00:19:52.343Z,100470.26
2019-05-02T00:22:18.814Z,100471.04
2019-05-02T00:24:45.849Z,100471.37
2019-05-02T00:27:12.191Z,100471.69
2019-05-02T00:29:38.725Z,100466.78
2019-05-02T00:32:05.222Z,100469.52
2019-05-02T00:34:31.544Z,100466.72
2019-05-02T00:36:57.813Z,100470.84
2019-05-02T00:39:24.012Z,100473.84
2019-05-02T00:41:50.218Z,100468.27
2019-05-02T00:44:16.510Z,100466.55
2019-05-02T00:46:42.734Z,100468.92
2019-05-02T00:49:08.918Z,100465.25
2019-05-02T00:51:35.352Z,100458.89
2019-05-02T00:54:01.768Z,100458.19
2019-05-02T00:56:28.105Z,100453.61
2019-05-02T00:58:54.374Z,100455.45
2019-05-02T01:01:29.667Z,100456.34
2019-05-02T01:03:58.436Z,100450.11
2019-05-02T01:06:24.746Z,100451.36
2019-05-02T01:08:50.882Z,100437.58
2019-05-02T01:11:17.262Z,100445.38
2019-05-02T01:13:43.434Z,100442.55
2019-05-02T01:16:09.573Z,100435.02
2019-05-02T01:18:37.131Z,100441.63
2019-05-02T01:21:04.172Z,100438.16
2019-05-02T01:23:31.720Z,100436.92
2019-05-02T01:25:57.836Z,100435.06
2019-05-02T01:28:25.975Z,100433.52
2019-05-02T01:31:13.064Z,100440.23
2019-05-02T01:33:54.132Z,100436.34
2019-05-02T01:36:22.360Z,100432.88
2019-05-02T01:38:50.076Z,100432.00
2019-05-02T01:41:16.304Z,100431.16
2019-05-02T01:43:42.443Z,100430.10
2019-05-02T01:46:08.783Z,100434.10
2019-05-02T01:48:35.077Z,100430.63
2019-05-02T01:51:04.339Z,100425.77
2019-05-02T01:53:34.341Z,100432.77
2019-05-02T01:55:59.314Z,100429.27
2019-05-02T01:58:25.569Z,100425.70
2019-05-02T02:00:51.760Z,100423.66
2019-05-02T02:03:18.069Z,100424.95
2019-05-02T02:05:44.385Z,100423.87
2019-05-02T02:08:10.711Z,100431.29
2019-05-02T02:10:37.016Z,100426.98
2019-05-02T02:13:05.191Z,100432.50
2019-05-02T02:15:31.590Z,100432.20
2019-05-02T02:17:57.895Z,100423.29
2019-05-02T02:20:37.774Z,100418.95
2019-05-02T02:23:10.189Z,100421.88
2019-05-02T02:25:38.493Z,100414.82
2019-05-02T02:28:04.812Z,100415.42
2019-05-02T02:30:31.080Z,100415.53
2019-05-02T02:33:00.852Z,100411.62
2019-05-02T02:35:25.601Z,100408.55
2019-05-02T02:37:52.932Z,100405.19
2019-05-02T02:40:19.997Z,100403.05
2019-05-02T02:42:46.282Z,100404.97
2019-05-02T02:45:59.714Z,100399.69
2019-05-02T02:48:26.444Z,100395.14
2019-05-02T02:50:52.649Z,100397.91
2019-05-02T02:53:31.029Z,100395.55
2019-05-02T02:56:02.046Z,100399.30
2019-05-02T02:58:27.928Z,100394.95
2019-05-02T03:00:54.244Z,100393.54
2019-05-02T03:03:27.235Z,100397.23
2019-05-02T03:05:48.684Z,100398.78
2019-05-02T03:08:14.975Z,100396.98
2019-05-02T03:10:45.099Z,100393.80
2019-05-02T03:13:14.906Z,100397.59
2019-05-02T03:15:44.123Z,100394.97
2019-05-02T03:18:10.424Z,100394.72
2019-05-02T03:20:40.726Z,100391.61
2019-05-02T03:23:04.960Z,100389.11
2019-05-02T03:25:50.073Z,100397.66
2019-05-02T03:27:59.942Z,100394.56
2019-05-02T03:30:35.497Z,100390.84
2019-05-02T03:33:06.650Z,100396.33
2019-05-02T03:35:40.864Z,100392.02
2019-05-02T03:37:53.137Z,100390.28
2019-05-02T03:40:19.683Z,100395.11
2019-05-02T03:42:47.738Z,100393.36
2019-05-02T03:45:14.218Z,100395.01
2019-05-02T03:47:43.659Z,100394.34
2019-05-02T03:50:09.971Z,100401.09
2019-05-02T03:52:42.573Z,100400.67
2019-05-02T03:55:05.006Z,100396.36
2019-05-02T03:57:33.419Z,100393.50
2019-05-02T03:59:59.104Z,100393.68
2019-05-02T04:02:25.840Z,100396.30
2019-05-02T04:04:54.399Z,100390.53
2019-05-02T04:07:20.130Z,100394.77
2019-05-02T04:09:46.539Z,100389.09
2019-05-02T04:12:18.531Z,100392.87
2019-05-02T04:14:41.425Z,100389.87
2019-05-02T04:17:09.534Z,100396.36
2019-05-02T04:19:36.538Z,100390.88
2019-05-02T04:22:08.624Z,100385.87
2019-05-02T04:24:31.436Z,100393.78
2019-05-02T04:26:58.268Z,100384.30
2019-05-02T04:29:30.455Z,100382.13
2019-05-02T04:31:52.485Z,100381.16
2019-05-02T04:34:18.785Z,100372.94
2019-05-02T04:36:46.576Z,100379.13
2019-05-02T04:39:20.509Z,100372.61
2019-05-02T04:41:42.359Z,100371.67
2019-05-02T04:44:09.248Z,100372.34
2019-05-02T04:46:38.574Z,100374.34
2019-05-02T04:49:03.728Z,100376.36
2019-05-02T04:51:32.168Z,100371.65
2019-05-02T04:53:58.890Z,100372.34
2019-05-02T04:56:28.362Z,100367.38
2019-05-02T04:58:54.578Z,100361.75
2019-05-02T05:01:21.533Z,100365.87
2019-05-02T05:03:49.226Z,100363.19
2019-05-02T05:06:18.637Z,100365.53
2019-05-02T05:08:44.098Z,100370.31
2019-05-02T05:11:14.058Z,100364.58
2019-05-02T05:13:38.568Z,100366.82
2019-05-02T05:16:08.680Z,100360.84
2019-05-02T05:18:32.930Z,100356.33
2019-05-02T05:20:59.112Z,100358.91
2019-05-02T05:23:28.004Z,100357.27
2019-05-02T05:26:03.459Z,100360.77
2019-05-02T05:28:24.370Z,100363.46
2019-05-02T05:30:52.229Z,100361.08
2019-05-02T05:33:18.587Z,100354.55
2019-05-02T05:35:50.959Z,100364.19
2019-05-02T05:38:12.786Z,100358.59
2019-05-02T05:40:38.996Z,100354.92
2019-05-02T05:43:13.564Z,100362.00
2019-05-02T05:45:33.443Z,100357.59
2019-05-02T05:48:01.124Z,100361.33
2019-05-02T05:50:27.681Z,100356.41
2019-05-02T05:52:53.881Z,100352.78
2019-05-02T05:55:24.058Z,100348.63
2019-05-02T05:57:50.128Z,100350.55
2019-05-02T06:00:22.653Z,100353.04
2019-05-02T06:02:53.862Z,100356.73
2019-05-02T06:05:12.763Z,100353.36
2019-05-02T06:07:41.802Z,100358.38
2019-05-02T06:10:08.307Z,100352.87
2019-05-02T06:12:35.758Z,100351.45
2019-05-02T06:15:03.785Z,100346.40
2019-05-02T06:17:30.505Z,100350.97
2019-05-02T06:19:57.065Z,100347.41
2019-05-02T06:22:24.776Z,100345.69
2019-05-02T06:24:52.407Z,100336.29
2019-05-02T06:27:20.810Z,100340.56
2019-05-02T06:29:51.092Z,100339.37
2019-05-02T06:32:19.276Z,100342.24
2019-05-02T06:34:46.467Z,100339.14
2019-05-02T06:37:13.677Z,100330.58
2019-05-02T06:39:40.532Z,100333.92
2019-05-02T06:42:06.750Z,100328.41
2019-05-02T06:44:33.014Z,100323.34
2019-05-02T06:47:05.719Z,100331.09
2019-05-02T06:49:32.076Z,100328.87
2019-05-02T06:51:58.645Z,100325.29
2019-05-02T06:54:24.839Z,100328.03
2019-05-02T06:56:51.231Z,100324.69
2019-05-02T06:59:18.576Z,100329.42
2019-05-02T07:01:45.582Z,100320.83
2019-05-02T07:04:12.092Z,100314.53
2019-05-02T07:06:56.118Z,100317.58
2019-05-02T07:09:06.817Z,100317.40
2019-05-02T07:11:38.306Z,100312.27
2019-05-02T07:14:12.630Z,100322.10
2019-05-02T07:16:38.434Z,100315.64
2019-05-02T07:19:10.623Z,100315.92
2019-05-02T07:21:36.959Z,100320.92
2019-05-02T07:24:04.772Z,100308.08
2019-05-02T07:26:31.207Z,100317.88
2019-05-02T07:28:58.741Z,100314.91
2019-05-02T07:31:25.144Z,100313.27
2019-05-02T07:33:51.349Z,100311.57
2019-05-02T07:36:17.594Z,100314.56
2019-05-02T07:38:43.927Z,100314.09
2019-05-02T07:41:10.315Z,100317.09
2019-05-02T07:43:36.498Z,100313.99
2019-05-02T07:46:03.304Z,100320.86
2019-05-02T07:48:31.520Z,100318.33
2019-05-02T07:50:57.602Z,100317.23
2019-05-02T07:53:23.835Z,100312.33
2019-05-02T07:55:50.143Z,100311.00
2019-05-02T07:58:16.366Z,100312.49
2019-05-02T08:00:42.444Z,100315.33
2019-05-02T08:03:08.749Z,100316.05
2019-05-02T08:05:35.513Z,100309.87
2019-05-02T08:08:03.107Z,100312.54
2019-05-02T08:10:30.592Z,100309.28
2019-05-02T08:12:56.772Z,100313.75
2019-05-02T08:15:24.565Z,100314.15
2019-05-02T08:17:53.864Z,100313.31
2019-05-02T08:20:21.175Z,100310.50
2019-05-02T08:22:49.029Z,100319.27
2019-05-02T08:25:15.909Z,100311.03
2019-05-02T08:27:44.013Z,100313.38
2019-05-02T08:30:13.035Z,100312.27
2019-05-02T08:32:39.407Z,100314.13
2019-05-02T08:35:05.850Z,100314.74
2019-05-02T08:37:35.430Z,100317.19
2019-05-02T08:40:00.425Z,100317.09
2019-05-02T08:42:32.685Z,100321.13
2019-05-02T08:45:00.907Z,100320.25
2019-05-02T08:47:28.579Z,100326.74
2019-05-02T08:49:54.909Z,100322.66
2019-05-02T08:52:21.064Z,100325.60
2019-05-02T08:54:47.458Z,100313.55
2019-05-02T08:57:13.861Z,100321.68
2019-05-02T08:59:40.973Z,100320.73
2019-05-02T09:02:07.443Z,100316.89
2019-05-02T09:04:33.839Z,100312.55
2019-05-02T09:07:00.806Z,100314.25
2019-05-02T09:09:32.559Z,100306.61
2019-05-02T09:12:03.274Z,100312.94
2019-05-02T09:14:23.366Z,100306.05
2019-05-02T09:16:49.514Z,100304.14
2019-05-02T09:19:21.349Z,100303.92
2019-05-02T09:21:44.002Z,100297.88
2019-05-02T09:24:15.827Z,100299.28
2019-05-02T09:26:38.880Z,100294.09
2019-05-02T09:29:05.590Z,100303.65
2019-05-02T09:31:32.088Z,100302.44
2019-05-02T09:33:58.214Z,100294.77
2019-05-02T09:36:24.428Z,100288.30
2019-05-02T09:38:56.023Z,100283.53
2019-05-02T09:41:19.426Z,100290.40
2019-05-02T09:43:45.783Z,100287.73
2019-05-02T09:46:16.511Z,100286.38
2019-05-02T09:48:42.513Z,100281.70
2019-05-02T09:51:12.520Z,100270.62
2019-05-02T09:53:36.822Z,100271.34
2019-05-02T09:56:03.150Z,100264.96
2019-05-02T09:58:31.859Z,100260.44
2019-05-02T10:01:05.562Z,100264.38
2019-05-02T10:03:33.064Z,100264.38
2019-05-02T10:05:59.299Z,100259.99
2019-05-02T10:08:25.685Z,100256.86
2019-05-02T10:10:52.310Z,100255.83
2019-05-02T10:13:18.496Z,100251.41
2019-05-02T10:15:45.456Z,100252.59
2019-05-02T10:18:14.393Z,100235.38
2019-05-02T10:20:41.958Z,100235.38
2019-05-02T10:23:12.074Z,100233.02
2019-05-02T10:25:39.343Z,100223.28
2019-05-02T10:28:05.365Z,100225.55
2019-05-02T10:30:35.873Z,100225.55
2019-05-02T10:33:02.514Z,100222.17
2019-05-02T10:35:37.210Z,100219.39
2019-05-02T10:38:02.502Z,100203.84
2019-05-02T10:40:28.835Z,100203.84
2019-05-02T10:42:55.212Z,100209.77
2019-05-02T10:45:22.493Z,100205.26
2019-05-02T10:47:49.026Z,100188.11
2019-05-02T10:50:22.261Z,100188.11
2019-05-02T10:52:48.724Z,100192.71
2019-05-02T10:55:15.144Z,100189.22
2019-05-02T10:57:42.044Z,100182.01
2019-05-02T11:00:12.263Z,100182.01
2019-05-02T11:02:57.047Z,100171.66
2019-05-02T11:05:26.589Z,100169.54
2019-05-02T11:07:56.962Z,100163.84
2019-05-02T11:10:21.813Z,100170.67
2019-05-02T11:13:08.025Z,100157.62
2019-05-02T11:15:44.816Z,100163.00
2019-05-02T11:18:12.706Z,100157.55
2019-05-02T11:20:39.106Z,100157.20
2019-05-02T11:23:05.224Z,100148.11
2019-05-02T11:25:32.011Z,100145.50
2019-05-02T11:28:02.907Z,100138.51
2019-05-02T11:30:26.753Z,100136.71
2019-05-02T11:32:53.045Z,100133.13
2019-05-02T11:35:19.340Z,100127.59
2019-05-02T11:37:45.421Z,100128.69
2019-05-02T11:40:12.856Z,100128.66
2019-05-02T11:42:41.543Z,100122.50
2019-05-02T11:45:08.064Z,100118.00
2019-05-02T11:47:34.258Z,100113.81
2019-05-02T11:50:02.403Z,100111.52
2019-05-02T11:52:33.022Z,100111.16
2019-05-02T11:54:57.084Z,100109.59
2019-05-02T11:57:28.487Z,100106.89
2019-05-02T11:59:52.049Z,100101.60
2019-05-02T12:02:22.041Z,100099.41
2019-05-02T12:04:53.967Z,100095.81
2019-05-02T12:09:57.064Z,100083.91
2019-05-02T12:12:27.293Z,100090.45
2019-05-02T12:14:52.826Z,100086.57
2019-05-02T12:17:19.270Z,100085.39
2019-05-02T12:19:45.476Z,100089.27
2019-05-02T12:23:18.001Z,100088.60
2019-05-02T12:24:40.887Z,100082.92
2019-05-02T12:27:08.010Z,100087.38
2019-05-02T12:29:34.301Z,100075.08
2019-05-02T12:32:15.673Z,100079.88
2019-05-02T12:34:42.136Z,100075.94
2019-05-02T12:37:08.458Z,100065.02
2019-05-02T12:39:34.648Z,100067.11
2019-05-02T12:42:03.108Z,100063.92
2019-05-02T12:44:29.119Z,100056.50
2019-05-02T12:46:55.561Z,100058.14
2019-05-02T12:49:27.128Z,100058.89
2019-05-02T12:51:50.025Z,100058.05
2019-05-02T12:54:16.295Z,100058.55
2019-05-02T12:56:42.669Z,100061.61
2019-05-02T12:59:08.861Z,100059.83
2019-05-02T13:01:35.306Z,100058.08
2019-05-02T13:04:03.433Z,100050.17
2019-05-02T13:06:29.747Z,100047.13
2019-05-02T13:08:56.006Z,100038.70
2019-05-02T13:11:27.195Z,100033.41
2019-05-02T13:13:53.656Z,100036.73
2019-05-02T13:16:20.192Z,100028.30
2019-05-02T13:18:46.398Z,100027.85
2019-05-02T13:21:16.887Z,100032.54
2019-05-02T13:23:44.724Z,100019.95
2019-05-02T13:26:19.574Z,100020.84
2019-05-02T13:28:42.374Z,100021.38
2019-05-02T13:31:29.093Z,100018.28
2019-05-02T13:34:06.439Z,100010.78
2019-05-02T13:36:42.256Z,100017.72
2019-05-02T13:39:22.827Z,100007.30
2019-05-02T13:41:49.273Z,100002.81
2019-05-02T13:44:17.512Z,100004.52
2019-05-02T13:46:44.009Z,100009.84
2019-05-02T13:49:12.674Z,100008.16
2019-05-02T13:51:38.965Z,100007.17
2019-05-02T13:54:05.483Z,100001.45
2019-05-02T13:56:47.873Z,99994.37
2019-05-02T13:59:14.730Z,99997.02
2019-05-02T14:01:42.351Z,99990.35
2019-05-02T14:04:10.234Z,99989.45
2019-05-02T14:06:37.872Z,99985.94
2019-05-02T14:09:19.920Z,99973.67
2019-05-02T14:11:48.063Z,99984.98
2019-05-02T14:14:14.402Z,99983.73
2019-05-02T14:16:42.004Z,99982.84
2019-05-02T14:19:08.318Z,99978.52
2019-05-02T14:21:34.771Z,99981.20
2019-05-02T14:24:01.761Z,99971.58
2019-05-02T14:26:30.551Z,99979.45
2019-05-02T14:28:56.420Z,99970.73
2019-05-02T14:31:22.734Z,99973.35
2019-05-02T14:34:07.593Z,99968.55
2019-05-02T14:36:33.856Z,99964.14
2019-05-02T14:39:02.278Z,99968.97
2019-05-02T14:41:38.890Z,99964.58
2019-05-02T14:43:58.656Z,99960.65
2019-05-02T14:46:28.657Z,99960.27
2019-05-02T14:48:53.757Z,99963.28
2019-05-02T14:51:25.513Z,99964.99
2019-05-02T14:53:48.669Z,99982.02
2019-05-02T14:56:26.014Z,99989.08
2019-05-02T14:58:52.924Z,100001.36
2019-05-02T15:01:22.553Z,100012.69
2019-05-02T15:03:48.710Z,100009.62
2019-05-02T15:06:17.828Z,100015.64
2019-05-02T15:08:44.975Z,100008.98
2019-05-02T15:11:12.534Z,100008.08
2019-05-02T15:13:40.941Z,100003.73
2019-05-02T15:16:10.433Z,99999.26
2019-05-02T15:18:37.293Z,100000.98
2019-05-02T15:21:11.401Z,99999.19
2019-05-02T15:23:32.523Z,99998.27
2019-05-02T15:25:58.923Z,99998.28
2019-05-02T15:28:25.236Z,100001.79
2019-05-02T15:31:05.350Z,100004.41
2019-05-02T15:33:32.551Z,100003.92
2019-05-02T15:36:03.089Z,99999.50
2019-05-02T15:38:28.854Z,99999.50
2019-05-02T15:40:59.489Z,100001.25
2019-05-02T15:43:23.362Z,100007.84
2019-05-02T15:45:49.842Z,100011.23
2019-05-02T15:48:26.015Z,100002.05
2019-05-02T15:50:50.182Z,100009.53
2019-05-02T15:53:14.252Z,100007.34
2019-05-02T15:55:43.619Z,100008.25
2019-05-02T15:58:17.164Z,100010.86
2019-05-02T16:00:46.208Z,100011.16
2019-05-02T16:03:12.553Z,100008.93
2019-05-02T16:05:41.208Z,100009.20
2019-05-02T16:08:08.829Z,100012.64
2019-05-02T16:10:38.374Z,100010.80
2019-05-02T16:13:08.785Z,100005.92
2019-05-02T16:15:32.913Z,100006.48
2019-05-02T16:18:03.651Z,100006.48
2019-05-02T16:20:49.221Z,100010.27
2019-05-02T16:23:19.106Z,100000.19
2019-05-02T16:25:44.323Z,99997.63
2019-05-02T16:28:12.618Z,100006.28
2019-05-02T16:30:44.164Z,100006.28
2019-05-02T16:33:16.741Z,100003.31
2019-05-02T16:35:37.504Z,100001.47
2019-05-02T16:38:03.958Z,99998.50
2019-05-02T16:40:32.843Z,99996.25
2019-05-02T16:42:58.898Z,99987.67
2019-05-02T16:45:25.522Z,99987.67
2019-05-02T16:47:58.747Z,99986.34
2019-05-02T16:50:20.108Z,99985.45
2019-05-02T16:52:47.431Z,99983.69
2019-05-02T16:55:20.821Z,99993.06
2019-05-02T16:57:44.983Z,99988.27
2019-05-02T17:00:15.272Z,99988.27
2019-05-02T17:02:44.901Z,99983.52
2019-05-02T17:05:12.093Z,99987.73
2019-05-02T17:07:41.103Z,99997.33
2019-05-02T17:10:14.618Z,99990.30
2019-05-02T17:12:39.190Z,99989.83
2019-05-02T17:15:26.349Z,99988.50
2019-05-02T17:17:54.378Z,99987.71
2019-05-02T17:20:22.163Z,99982.47
2019-05-02T17:22:50.370Z,99984.99
2019-05-02T17:25:17.066Z,99977.14
2019-05-02T17:27:43.312Z,99984.88
2019-05-02T17:30:11.936Z,99983.66
2019-05-02T17:32:38.640Z,99990.27
2019-05-02T17:35:09.760Z,99983.23
2019-05-02T17:37:33.950Z,99984.61
2019-05-02T17:40:01.770Z,99992.73
2019-05-02T17:42:28.286Z,99996.30
2019-05-02T17:44:59.390Z,99997.27
2019-05-02T17:47:22.609Z,99999.31
2019-05-02T17:49:49.766Z,100004.98
2019-05-02T17:52:26.875Z,99998.70
2019-05-02T17:54:52.977Z,100004.44
2019-05-02T17:57:21.452Z,100006.11
2019-05-02T17:59:47.673Z,100006.61
2019-05-02T18:02:15.991Z,99999.72
2019-05-02T18:04:46.614Z,100000.17
2019-05-02T18:07:11.693Z,99999.77
2019-05-02T18:09:38.278Z,100006.78
2019-05-02T18:12:07.131Z,100006.72
2019-05-02T18:14:32.999Z,100004.61
2019-05-02T18:16:59.525Z,100001.48
2019-05-02T18:19:25.863Z,100005.80
2019-05-02T18:21:52.675Z,100004.98
2019-05-02T18:24:18.929Z,100007.51
2019-05-02T18:26:45.535Z,100013.59
2019-05-02T18:29:12.669Z,100008.29
2019-05-02T18:31:47.262Z,100013.94
2019-05-02T18:34:14.302Z,100008.20
2019-05-02T18:36:38.029Z,100012.13
2019-05-02T18:39:06.564Z,100008.75
2019-05-02T18:41:37.425Z,100001.36
2019-05-02T18:44:04.293Z,100009.00
2019-05-02T18:46:30.621Z,100017.69
2019-05-02T18:48:56.880Z,100020.20
2019-05-02T18:51:23.221Z,100019.52
2019-05-02T18:53:49.584Z,100020.14
2019-05-02T18:56:15.952Z,100016.48
2019-05-02T18:58:45.242Z,100015.50
2019-05-02T19:01:14.034Z,100009.74
2019-05-02T19:03:39.357Z,100017.36
2019-05-02T19:06:06.728Z,100020.28
2019-05-02T19:08:45.271Z,100028.08
2019-05-02T19:11:11.706Z,100029.43
2019-05-02T19:13:37.662Z,100038.27
2019-05-02T19:16:02.930Z,100035.78
2019-05-02T19:18:32.247Z,100031.08
2019-05-02T19:20:59.695Z,100034.16
2019-05-02T19:23:26.129Z,100038.66
2019-05-02T19:25:53.013Z,100036.96
2019-05-02T19:28:29.075Z,100043.12
2019-05-02T19:30:57.246Z,100040.70
2019-05-02T19:33:23.854Z,100039.69
2019-05-02T19:35:52.436Z,100040.52
2019-05-02T19:38:24.716Z,100045.41
2019-05-02T19:40:47.017Z,100044.23
2019-05-02T19:43:14.792Z,100048.25
2019-05-02T19:45:41.302Z,100050.06
2019-05-02T19:48:07.651Z,100042.97
2019-05-02T19:50:41.754Z,100047.66
2019-05-02T19:53:05.388Z,100046.12
2019-05-02T19:55:32.153Z,100044.73
2019-05-02T19:58:04.818Z,100046.91
2019-05-02T20:00:29.495Z,100048.60
2019-05-02T20:02:55.972Z,100051.01
2019-05-02T20:05:25.517Z,100052.55
2019-05-02T20:07:51.969Z,100054.80
2019-05-02T20:10:19.404Z,100052.55
2019-05-02T20:12:48.110Z,100047.34
2019-05-02T20:15:16.997Z,100054.20
2019-05-02T20:17:44.535Z,100057.41
2019-05-02T20:20:42.490Z,100054.48
2019-05-02T20:23:15.463Z,100058.58
2019-05-02T20:25:39.094Z,100057.27
2019-05-02T20:28:05.285Z,100052.09
2019-05-02T20:30:31.615Z,100059.88
2019-05-02T20:32:58.076Z,100061.61
2019-05-02T20:35:24.474Z,100069.23
2019-05-02T20:37:52.591Z,100061.83
2019-05-02T20:40:27.919Z,100071.95
2019-05-02T20:42:54.263Z,100068.56
2019-05-02T20:45:22.653Z,100068.56
2019-05-02T20:47:48.736Z,100069.39
2019-05-02T20:50:15.124Z,100071.13
2019-05-02T20:52:41.796Z,100063.09
2019-05-02T20:55:08.263Z,100074.22
2019-05-02T20:57:34.480Z,100069.95
2019-05-02T21:00:01.660Z,100074.34
2019-05-02T21:02:28.318Z,100075.04
2019-05-02T21:04:54.620Z,100078.55
2019-05-02T21:07:28.378Z,100075.75
2019-05-02T21:09:59.261Z,100081.51
2019-05-02T21:12:26.580Z,100078.78
2019-05-02T21:14:52.913Z,100090.55
2019-05-02T21:17:19.202Z,100083.59
2019-05-02T21:19:45.423Z,100078.30
2019-05-02T21:22:18.131Z,100082.75
2019-05-02T21:24:44.438Z,100084.09
2019-05-02T21:27:10.796Z,100086.83
2019-05-02T21:29:37.144Z,100098.06
2019-05-02T21:32:03.568Z,100091.50
2019-05-02T21:34:31.715Z,100102.27
2019-05-02T21:36:58.937Z,100103.96
2019-05-02T21:39:25.283Z,100109.02
2019-05-02T21:41:51.782Z,100103.77
2019-05-02T21:44:18.225Z,100102.81
2019-05-02T21:46:44.453Z,100102.63
2019-05-02T21:49:12.710Z,100105.80
2019-05-02T21:51:43.460Z,100105.84
2019-05-02T21:54:12.192Z,100106.52
2019-05-02T21:56:43.601Z,100108.64
2019-05-02T21:59:12.142Z,100114.06
2019-05-02T22:01:43.721Z,100112.32
2019-05-02T22:04:10.143Z,100107.23
2019-05-02T22:06:36.479Z,100113.15
2019-05-02T22:09:06.129Z,100112.99
2019-05-02T22:11:32.646Z,100120.03
2019-05-02T22:14:02.469Z,100114.02
2019-05-02T22:16:28.737Z,100112.72
2019-05-02T22:18:55.195Z,100118.41
2019-05-02T22:21:22.797Z,100118.41
2019-05-02T22:23:49.177Z,100118.30
2019-05-02T22:26:15.453Z,100116.56
2019-05-02T22:28:41.617Z,100121.01
2019-05-02T22:31:07.694Z,100121.42
2019-05-02T22:33:33.939Z,100130.70
2019-05-02T22:36:01.807Z,100128.56
2019-05-02T22:38:31.815Z,100136.28
2019-05-02T22:40:58.675Z,100133.23
2019-05-02T22:43:24.965Z,100140.06
2019-05-02T22:45:51.246Z,100143.09
2019-05-02T22:48:17.384Z,100145.27
2019-05-02T22:50:43.618Z,100151.38
2019-05-02T22:53:09.812Z,100147.21
2019-05-02T22:55:36.083Z,100148.89
2019-05-02T22:58:02.412Z,100152.03
2019-05-02T23:00:28.619Z,100154.16
2019-05-02T23:02:54.857Z,100155.73
2019-05-02T23:05:21.267Z,100158.33
2019-05-02T23:07:47.448Z,100163.91
2019-05-02T23:10:13.800Z,100168.67
2019-05-02T23:12:42.255Z,100172.61
2019-05-02T23:15:08.412Z,100170.82
2019-05-02T23:17:34.562Z,100175.10
2019-05-02T23:20:02.165Z,100182.10
2019-05-02T23:22:28.488Z,100182.42
2019-05-02T23:25:15.376Z,100192.95
2019-05-02T23:27:43.526Z,100187.75
2019-05-02T23:30:14.220Z,100182.42
2019-05-02T23:32:41.915Z,100187.62
2019-05-02T23:35:08.646Z,100190.97
2019-05-02T23:37:34.954Z,100187.45
2019-05-02T23:40:02.011Z,100193.44
2019-05-02T23:42:29.048Z,100193.34
2019-05-02T23:44:55.230Z,100186.45
2019-05-02T23:47:22.453Z,100196.80
2019-05-02T23:49:48.877Z,100196.86
2019-05-02T23:52:15.109Z,100197.28
2019-05-02T23:54:49.913Z,100198.41
2019-05-02T23:57:09.541Z,100196.18
2019-05-02T23:59:35.720Z,100188.25
